Armagh, Canada
Current Conditions -  °F | °C
As of 10:50 PM on Sunday 23 Nov 2014 (Local Time) from CYQB Reporting Station
Drizzle Drizzle  
Wind Chill: 28°   Ceiling: 100
Heat Index: 34°   Visibility: 0.25mi
Dew Point: 34°   Wind: 7mph
Humidity: 100%   Direction: 20°NNE
Pressure: 30.01"   Gusts: NA
Location:  46.75°N, 70.58°W
Report Text: CYQB 240350Z 02006KT 1/4SM R06/2000FT/N -DZ FG VV001 01/01 A3001 RMK FG8 SLP167
Loading
Personal Weather Stations






























Interactive Weather Map New forecast layout! Learn more

10-Day Weather Forecast

Advertisements
Track Severe Weather on mobile